Latest Weather Observations for Tamworth Airport

IDN60801

Issued at 6:35 am EDT Sunday 26 October 2014 (issued every 30 minutes, with the page automatically refreshed every 10 minutes)

About weather observations | Map of weather stations | Latest weather observations for NSW | Other Formats
Station Details ID: 055325 Name: TAMWORTH AIRPORT AWS Lat: -31.07 Lon: 150.84 Height: 394.9 m
Data from the previous 72 hours. | See also: Recent months at Tamworth Airport
Date/Time
EDT
Temp
°C
App
Temp
°C
Dew
Point
Rel
Hum
%
Delta-T
°C
Wind Press
QNH
hPa
Press
MSL
hPa
Rain
since 9 am
mm
Dir
 
Spd
km/h
Gust
km/h
Spd
kts
Gust
kts
26/06:30am 16.8 14.4 7.2 53 4.9 S 9 11 5 6 1014.8 1013.8 0.0
26/06:00am 16.4 13.6 7.1 54 4.7 S 11 13 6 7 1014.6 1013.6 0.0
26/05:30am 17.5 14.1 7.8 53 5.0 SSW 15 19 8 10 1014.5 1013.5 0.0
26/05:00am 16.5 14.0 6.6 52 5.0 WSW 9 11 5 6 1014.6 1013.6 0.0
26/04:30am 18.1 15.7 7.2 49 5.6 SW 9 11 5 6 1014.7 1013.7 0.0
26/04:00am 20.0 18.6 7.4 44 6.6 NE 4 7 2 4 1014.7 1013.7 0.0
26/03:30am 19.9 16.9 7.6 45 6.4 NE 13 15 7 8 1015.3 1014.3 0.0
26/03:00am 20.4 18.0 7.1 42 6.9 NNE 9 11 5 6 1015.8 1014.7 0.0
26/02:30am 22.7 19.9 6.9 36 8.3 ESE 11 20 6 11 1016.0 1015.0 0.0
26/02:00am 22.6 18.9 6.4 35 8.4 SSW 15 17 8 9 1016.7 1015.7 0.0
26/01:30am 21.8 18.4 7.6 40 7.5 S 15 19 8 10 1016.2 1015.2 0.0
26/01:00am 21.5 18.0 7.0 39 7.6 S 15 17 8 9 1016.2 1015.2 0.0
26/12:30am 21.3 17.0 7.2 40 7.4 S 19 19 10 10 1016.5 1015.5 0.0
26/12:00am 24.0 21.1 6.3 32 9.3 ESE 11 17 6 9 1016.6 1015.6 0.0
 
Date/Time
EDT
Temp
°C
App
Temp
°C
Dew
Point
Rel
Hum
%
Delta-T
°C
Wind Press
QNH
hPa
Press
MSL
hPa
Rain
since 9 am
mm
Dir
 
Spd
km/h
Gust
km/h
Spd
kts
Gust
kts
25/11:30pm 24.1 20.3 5.9 31 9.5 E 15 19 8 10 1016.6 1015.6 0.0
25/11:00pm 24.6 19.2 6.4 31 9.6 SE 24 32 13 17 1016.7 1015.7 0.0
25/10:30pm 25.7 20.2 5.8 28 10.4 E 24 33 13 18 1017.0 1016.0 0.0
25/10:00pm 26.1 21.3 5.7 27 10.7 ESE 20 30 11 16 1016.9 1015.9 0.0
25/09:30pm 26.0 20.8 5.6 27 10.7 E 22 30 12 16 1016.7 1015.7 0.0
25/09:00pm 27.3 20.5 5.0 24 11.6 E 30 41 16 22 1016.6 1015.6 0.0
25/08:33pm 26.5 19.9 6.0 27 10.8 SE 30 50 16 27 1016.5 1015.5 0.0
25/08:30pm 26.2 20.3 7.3 30 10.2 SE 28 41 15 22 1016.7 1015.7 0.0
25/08:00pm 27.7 23.0 5.3 24 11.8 E 19 24 10 13 1015.7 1014.6 0.0
25/07:30pm 27.5 21.7 4.5 23 11.9 ESE 24 30 13 16 1014.8 1013.8 0.0
25/07:00pm 29.4 24.2 3.4 19 13.4 ESE 20 28 11 15 1014.5 1013.5 0.0
25/06:30pm 31.7 29.9 1.0 14 15.4 CALM 0 4 0 2 1014.3 1013.3 0.0
25/06:00pm 32.0 29.8 1.2 14 15.5 N 2 9 1 5 1014.1 1013.1 0.0
25/05:30pm 33.6 29.6 0.3 12 16.7 NE 11 17 6 9 1014.0 1013.0 0.0
25/05:00pm 33.8 29.8 0.5 12 16.7 SSE 11 19 6 10 1014.1 1013.1 0.0
25/04:30pm 34.1 31.5 0.7 12 16.9 WSW 4 32 2 17 1014.2 1013.2 0.0
25/04:00pm 34.7 30.8 1.1 12 17.2 S 11 20 6 11 1014.3 1013.3 0.0
25/03:30pm 34.0 29.3 0.6 12 16.8 S 15 24 8 13 1014.7 1013.7 0.0
25/03:00pm 35.3 30.7 1.6 12 17.4 S 15 32 8 17 1015.0 1014.0 0.0
25/02:30pm 34.4 29.9 2.0 13 16.8 S 15 22 8 12 1015.6 1014.5 0.0
25/02:00pm 34.9 30.1 2.4 13 17.0 S 17 28 9 15 1016.0 1015.0 0.0
25/01:30pm 33.0 30.0 2.0 14 15.9 NNE 7 15 4 8 1016.4 1015.4 0.0
25/01:00pm 32.9 28.9 2.9 15 15.6 SW 13 17 7 9 1017.0 1016.0 0.0
25/12:30pm 31.8 27.4 2.9 16 14.9 W 15 20 8 11 1017.3 1016.3 0.0
25/12:00pm 31.7 29.2 4.5 18 14.4 SW 7 13 4 7 1017.9 1016.9 0.0
25/11:30am 30.9 27.6 4.6 19 13.9 NW 11 17 6 9 1018.4 1017.4 0.0
25/11:00am 29.3 25.7 6.7 24 12.2 NNW 15 24 8 13 1018.6 1017.6 0.0
25/10:30am 28.9 25.2 8.0 27 11.6 NNW 17 28 9 15 1018.9 1017.9 0.0
25/10:00am 28.2 24.6 8.5 29 10.9 NNW 17 26 9 14 1019.0 1018.0 0.0
25/09:30am 26.7 22.9 9.1 33 9.8 N 19 24 10 13 1019.0 1018.0 0.0
25/09:00am 26.3 22.6 9.6 35 9.4 N 19 30 10 16 1019.1 1018.1 0.0
25/08:30am 25.0 23.0 10.1 39 8.4 NNE 11 20 6 11 1018.9 1017.9 0.0
25/08:00am 23.6 22.4 10.3 43 7.4 ENE 7 11 4 6 1018.9 1017.9 0.0
25/07:30am 21.7 20.9 11.1 51 6.0 WNW 6 9 3 5 1018.6 1017.6 0.0
25/07:00am 19.4 18.4 10.4 56 4.9 W 6 7 3 4 1018.0 1017.0 0.0
25/06:30am 18.3 16.5 9.6 57 4.7 NW 9 13 5 7 1017.6 1016.6 0.0
25/06:00am 19.0 16.9 9.8 55 5.0 N 11 13 6 7 1017.2 1016.2 0.0
25/05:30am 18.6 16.7 9.1 54 5.1 NW 9 13 5 7 1017.0 1016.0 0.0
25/05:00am 20.3 17.4 9.5 50 5.9 N 15 17 8 9 1016.7 1015.7 0.0
25/04:30am 20.3 17.5 8.6 47 6.2 N 13 15 7 8 1016.5 1015.5 0.0
25/04:00am 20.2 18.5 8.5 47 6.2 NW 7 9 4 5 1016.4 1015.4 0.0
25/03:30am 19.9 17.4 8.3 47 6.1 NW 11 13 6 7 1016.3 1015.3 0.0
25/03:00am 20.1 17.7 7.1 43 6.7 WSW 9 11 5 6 1016.2 1015.2 0.0
25/02:30am 23.0 19.7 7.9 38 8.1 NNW 15 20 8 11 1015.9 1014.8 0.0
25/02:00am 23.4 19.6 7.5 36 8.5 NNW 17 20 9 11 1016.0 1015.0 0.0
25/01:30am 24.3 20.5 7.4 34 9.0 NNW 17 22 9 12 1016.1 1015.1 0.0
25/01:00am 24.4 20.2 7.5 34 9.0 NNW 19 24 10 13 1016.4 1015.4 0.0
25/12:30am 22.2 19.3 8.3 41 7.5 NW 13 17 7 9 1016.7 1015.7 0.0
25/12:00am 21.0 18.2 8.6 45 6.6 W 13 15 7 8 1016.9 1015.9 0.0
 
Date/Time
EDT
Temp
°C
App
Temp
°C
Dew
Point
Rel
Hum
%
Delta-T
°C
Wind Press
QNH
hPa
Press
MSL
hPa
Rain
since 9 am
mm
Dir
 
Spd
km/h
Gust
km/h
Spd
kts
Gust
kts
24/11:30pm 20.8 18.4 8.8 46 6.5 W 11 13 6 7 1016.6 1015.6 0.0
24/11:00pm 21.5 19.0 8.4 43 7.0 W 11 13 6 7 1016.4 1015.4 0.0
24/10:30pm 21.9 19.6 7.3 39 7.7 W 9 11 5 6 1016.3 1015.3 0.0
24/10:00pm 24.3 22.0 7.4 34 9.0 N 9 9 5 5 1016.3 1015.3 0.0
24/09:30pm 25.1 22.9 7.7 33 9.4 NNE 9 11 5 6 1016.2 1015.2 0.0
24/09:00pm 25.6 23.0 7.7 32 9.7 NNE 11 13 6 7 1016.1 1015.1 0.0
24/08:30pm 25.9 23.2 7.5 31 9.9 NNE 11 13 6 7 1016.0 1015.0 0.0
24/08:00pm 26.1 23.4 7.2 30 10.2 NNE 11 11 6 6 1015.8 1014.7 0.0
24/07:30pm 27.0 23.8 6.9 28 10.8 NNE 13 15 7 8 1015.7 1014.6 0.0
24/07:00pm 28.6 25.4 6.7 25 11.8 NNE 13 15 7 8 1015.7 1014.6 0.0
24/06:30pm 30.3 27.3 6.2 22 13.0 NNE 11 15 6 8 1015.8 1014.7 0.0
24/06:00pm 30.8 27.2 6.6 22 13.2 NNE 15 20 8 11 1015.7 1014.6 0.0
24/05:30pm 31.7 28.8 6.7 21 13.7 N 11 24 6 13 1015.7 1014.6 0.0
24/05:00pm 31.6 28.2 5.9 20 13.9 N 13 20 7 11 1016.0 1015.0 0.0
24/04:30pm 31.5 28.5 5.8 20 13.9 NNW 11 19 6 10 1016.2 1015.2 0.0
24/04:00pm 31.6 28.2 5.9 20 13.9 NNW 13 24 7 13 1016.6 1015.6 0.0
24/03:30pm 31.2 27.4 5.6 20 13.8 NW 15 26 8 14 1017.1 1016.1 0.0
24/03:00pm 31.1 28.4 5.5 20 13.7 NNW 9 20 5 11 1017.7 1016.7 0.0
24/02:30pm 30.9 28.1 5.3 20 13.7 NW 9 20 5 11 1018.3 1017.3 0.0
24/02:00pm 30.6 27.2 5.8 21 13.3 N 13 22 7 12 1018.9 1017.9 0.0
24/01:30pm 29.7 26.5 7.0 24 12.4 NNW 13 20 7 11 1019.5 1018.5 0.0
24/01:00pm 28.4 25.1 6.5 25 11.8 N 13 22 7 12 1019.8 1018.8 0.0
24/12:30pm 27.6 24.8 6.9 27 11.2 NNW 11 20 6 11 1020.4 1019.5 0.0
24/12:00pm 27.0 24.5 8.0 30 10.4 N 11 19 6 10 1021.1 1020.1 0.0
24/11:30am 24.6 22.6 8.5 36 8.8 N 9 15 5 8 1021.3 1020.3 0.0
24/11:00am 24.3 22.1 7.9 35 8.8 NNE 9 15 5 8 1021.5 1020.5 0.0
24/10:30am 23.7 22.1 8.9 39 8.1 W 7 11 4 6 1021.9 1020.9 0.0
24/10:00am 21.2 19.6 10.1 49 6.1 SSW 9 13 5 7 1022.5 1021.5 0.0
24/09:30am 20.8 18.6 9.4 48 6.2 E 11 15 6 8 1021.7 1020.7 0.0
24/09:00am 20.1 18.7 9.7 51 5.6 SW 7 13 4 7 1022.2 1021.2 0.0
24/08:30am 19.0 17.9 9.8 55 5.0 SSW 6 7 3 4 1022.0 1021.0 0.0
24/08:00am 17.7 15.1 10.6 63 3.9 NE 15 19 8 10 1021.3 1020.3 0.0
24/07:30am 16.9 13.9 9.1 60 4.1 SE 15 19 8 10 1022.1 1021.1 0.0
24/07:00am 14.8 13.5 10.0 73 2.5 SSW 7 11 4 6 1021.9 1020.9 0.0
24/06:30am 13.4 11.2 9.3 76 2.1 SSE 11 13 6 7 1021.1 1020.1 0.0
24/06:00am 12.6 12.3 8.7 77 2.0 CALM 0 0 0 0 1020.8 1019.8 0.0
24/05:30am 13.9 12.0 8.9 72 2.6 E 9 13 5 7 1020.4 1019.5 0.0
24/05:00am 14.2 12.3 9.2 72 2.6 SSE 9 11 5 6 1020.0 1019.0 0.0
24/04:30am 15.4 13.7 9.7 69 3.0 S 9 15 5 8 1019.6 1018.6 0.0
24/04:00am 15.2 12.4 10.0 71 2.8 SSE 15 20 8 11 1019.2 1018.2 0.0
24/03:30am 15.4 12.8 9.5 68 3.1 SSE 13 15 7 8 1019.3 1018.3 0.0
24/03:00am 15.9 13.4 9.6 66 3.3 SE 13 15 7 8 1019.4 1018.4 0.0
24/02:30am 16.4 13.5 9.8 65 3.5 SE 15 19 8 10 1019.6 1018.6 0.0
24/02:00am 16.2 12.9 9.4 64 3.6 SSE 17 17 9 9 1020.1 1019.1 0.0
24/01:30am 17.0 14.0 9.4 61 4.0 SSE 15 17 8 9 1020.4 1019.5 0.0
24/01:00am 17.7 15.0 8.8 56 4.7 S 13 15 7 8 1020.8 1019.8 0.0
24/12:30am 17.5 15.6 8.9 57 4.5 S 9 13 5 7 1021.1 1020.1 0.0
24/12:00am 18.2 16.4 7.9 51 5.3 SSW 7 11 4 6 1020.9 1019.9 0.0
 
Date/Time
EDT
Temp
°C
App
Temp
°C
Dew
Point
Rel
Hum
%
Delta-T
°C
Wind Press
QNH
hPa
Press
MSL
hPa
Rain
since 9 am
mm
Dir
 
Spd
km/h
Gust
km/h
Spd
kts
Gust
kts
23/11:30pm 20.2 17.8 8.8 48 6.1 ESE 11 13 6 7 1021.0 1020.0 0.0
23/11:00pm 20.5 18.2 9.1 48 6.1 SE 11 13 6 7 1020.8 1019.8 0.0
23/10:30pm 22.0 19.0 9.2 44 7.0 E 15 20 8 11 1020.9 1019.9 0.0
23/10:00pm 22.6 18.6 9.0 42 7.4 E 20 26 11 14 1020.8 1019.8 0.0
23/09:30pm 22.9 18.4 8.6 40 7.7 E 22 30 12 16 1020.3 1019.4 0.0
23/09:20pm 23.6 17.8 8.1 37 8.4 ESE 28 35 15 19 1020.3 1019.4 0.0
23/09:00pm 23.1 20.4 8.8 40 7.8 ESE 13 17 7 9 1019.6 1018.6 0.0
23/08:30pm 23.8 20.0 9.0 39 8.1 ENE 19 24 10 13 1019.0 1018.0 0.0
23/08:00pm 23.6 22.6 7.3 35 8.6 W 2 6 1 3 1018.9 1017.9 0.0
23/07:30pm 24.5 22.4 6.7 32 9.4 N 7 9 4 5 1017.8 1016.8 0.0
23/07:00pm 25.2 21.5 6.4 30 9.9 NW 15 19 8 10 1017.4 1016.4 0.0
23/06:30pm 26.9 22.3 5.8 26 11.1 WNW 19 26 10 14 1017.4 1016.4 0.0
23/06:00pm 26.8 22.2 5.7 26 11.1 W 19 22 10 12 1017.0 1016.0 0.0
23/05:30pm 29.3 24.8 6.0 23 12.5 WNW 19 24 10 13 1016.9 1015.9 0.0
23/05:00pm 29.0 22.3 5.8 23 12.4 WNW 30 39 16 21 1016.7 1015.7 0.0
23/04:30pm 27.1 20.3 7.0 28 10.8 WSW 32 46 17 25 1016.9 1015.9 0.0
23/04:22pm 27.6 21.2 6.9 27 11.2 WSW 30 46 16 25 1016.8 1015.8 0.0
23/04:00pm 29.4 24.8 5.5 22 12.7 SW 19 24 10 13 1016.6 1015.6 0.0
23/03:30pm 30.2 25.5 3.3 18 13.9 S 17 26 9 14 1016.4 1015.4 0.0
23/03:00pm 29.8 26.2 5.1 21 13.1 S 13 22 7 12 1016.6 1015.6 0.0
23/02:30pm 30.4 27.8 6.3 22 13.1 SW 9 24 5 13 1017.1 1016.1 0.0
23/02:00pm 31.3 27.0 7.7 23 13.1 WSW 20 32 11 17 1017.8 1016.8 0.0
23/01:30pm 30.6 25.9 7.7 24 12.7 WSW 22 32 12 17 1018.7 1017.7 0.0
23/01:00pm 28.3 25.9 7.0 26 11.5 W 9 20 5 11 1019.2 1018.2 0.0
23/12:30pm 27.8 23.9 7.1 27 11.2 WSW 17 24 9 13 1019.8 1018.8 0.0
23/12:00pm 27.3 24.0 8.2 30 10.5 NNW 15 26 8 14 1020.1 1019.1 0.0
23/11:30am 26.8 23.6 8.3 31 10.2 NNW 15 20 8 11 1020.6 1019.7 0.0
23/11:00am 26.2 23.3 8.2 32 9.8 N 13 20 7 11 1021.2 1020.2 0.0
23/10:30am 25.5 21.5 8.1 33 9.5 N 19 24 10 13 1021.3 1020.3 0.0
23/10:00am 24.6 20.5 7.7 34 9.1 N 19 32 10 17 1021.4 1020.4 0.0
23/09:30am 23.9 19.8 7.9 36 8.6 N 19 28 10 15 1021.4 1020.4 0.0
23/09:00am 21.7 19.8 7.5 40 7.5 N 7 11 4 6 1021.5 1020.5 0.0
23/08:30am 20.1 19.1 7.5 44 6.6 N 2 7 1 4 1021.6 1020.6 0.0
23/08:00am 18.1 15.2 6.6 47 5.8 SE 11 15 6 8 1021.4 1020.4 0.0
23/07:30am 17.6 15.7 7.4 51 5.2 SE 7 9 4 5 1021.3 1020.3 0.0
23/07:00am 14.9 12.2 7.5 61 3.7 SSE 11 15 6 8 1021.4 1020.4 0.0

Other Formats:

Comma delimited format used in spreadsheet applications
http://www.bom.gov.au/fwo/IDN60801/IDN60801.95762.axf

JavaScript Object Notation format (JSON) in row-major order
http://www.bom.gov.au/fwo/IDN60801/IDN60801.95762.json